createdAt,value
2022-10-18T00:01:10.057Z,32.10
2022-10-18T00:03:46.571Z,33.30
2022-10-18T00:06:18.689Z,31.30
2022-10-18T00:08:50.769Z,32.90
2022-10-18T00:11:23.381Z,31.10
2022-10-18T00:13:56.909Z,30.70
2022-10-18T00:16:29.106Z,29.20
2022-10-18T00:19:01.232Z,29.20
2022-10-18T00:21:33.416Z,35.90
2022-10-18T00:24:08.265Z,32.00
2022-10-18T00:26:40.357Z,30.20
2022-10-18T00:29:16.876Z,31.80
2022-10-18T00:31:49.025Z,30.10
2022-10-18T00:34:21.117Z,32.10
2022-10-18T00:36:53.220Z,33.30
2022-10-18T00:39:25.641Z,30.30
2022-10-18T00:41:57.770Z,30.10
2022-10-18T00:45:04.222Z,32.40
2022-10-18T00:47:38.021Z,33.60
2022-10-18T00:50:11.724Z,31.70
2022-10-18T00:52:47.162Z,31.80
2022-10-18T00:55:19.556Z,34.50
2022-10-18T00:57:52.483Z,35.40
2022-10-18T01:00:24.900Z,29.50
2022-10-18T01:02:57.456Z,34.90
2022-10-18T01:05:29.932Z,30.30
2022-10-18T01:08:46.849Z,31.50
2022-10-18T01:11:52.433Z,32.50
2022-10-18T01:14:39.902Z,32.70
2022-10-18T01:17:19.464Z,34.60
2022-10-18T01:20:20.933Z,31.50
2022-10-18T01:22:58.596Z,30.50
2022-10-18T01:25:48.004Z,33.70
2022-10-18T01:28:33.361Z,30.10
2022-10-18T01:31:08.184Z,27.30
2022-10-18T01:33:44.253Z,31.50
2022-10-18T01:36:22.452Z,32.80
2022-10-18T01:38:58.781Z,35.90
2022-10-18T01:41:31.592Z,30.50
2022-10-18T01:44:08.057Z,31.40
2022-10-18T01:46:41.181Z,34.50
2022-10-18T01:49:13.265Z,35.60
2022-10-18T01:51:45.327Z,31.60
2022-10-18T01:54:23.502Z,31.30
2022-10-18T01:56:59.876Z,29.80
2022-10-18T01:59:41.063Z,31.60
2022-10-18T02:02:26.415Z,31.20
2022-10-18T02:05:04.672Z,31.20
2022-10-18T02:07:43.814Z,30.50
2022-10-18T02:10:19.966Z,35.20
2022-10-18T02:12:55.393Z,29.20
2022-10-18T02:15:31.395Z,30.70
2022-10-18T02:18:06.982Z,32.30
2022-10-18T02:20:40.080Z,31.00
2022-10-18T02:23:15.421Z,27.40
2022-10-18T02:25:47.805Z,28.50
2022-10-18T02:28:20.290Z,27.30
2022-10-18T02:31:00.274Z,29.40
2022-10-18T02:33:39.445Z,26.30
2022-10-18T02:36:16.610Z,28.30
2022-10-18T02:38:49.592Z,28.70
2022-10-18T02:41:27.731Z,26.50
2022-10-18T02:43:59.874Z,27.10
2022-10-18T02:46:32.025Z,30.40
2022-10-18T02:49:04.341Z,27.20
2022-10-18T02:51:36.477Z,27.90
2022-10-18T02:54:09.611Z,26.50
2022-10-18T02:56:41.812Z,27.80
2022-10-18T02:59:14.285Z,29.00
2022-10-18T03:01:46.475Z,30.80
2022-10-18T03:04:18.647Z,28.80
2022-10-18T03:06:50.778Z,29.20
2022-10-18T03:09:22.936Z,29.30
2022-10-18T03:11:55.048Z,27.30
2022-10-18T03:14:27.314Z,30.40
2022-10-18T03:16:59.435Z,29.80
2022-10-18T03:19:31.852Z,27.60
2022-10-18T03:22:04.000Z,27.80
2022-10-18T03:24:36.286Z,31.10
2022-10-18T03:27:08.384Z,29.90
2022-10-18T03:29:40.780Z,32.30
2022-10-18T03:32:12.892Z,32.40
2022-10-18T03:34:45.014Z,28.20
2022-10-18T03:37:17.564Z,33.40
2022-10-18T03:39:49.792Z,31.80
2022-10-18T03:42:22.261Z,30.40
2022-10-18T03:44:54.465Z,32.00
2022-10-18T03:47:26.652Z,33.80
2022-10-18T03:50:00.137Z,31.50
2022-10-18T03:52:32.619Z,32.20
2022-10-18T03:55:05.331Z,31.60
2022-10-18T03:57:37.441Z,29.90
2022-10-18T04:00:12.711Z,32.00
2022-10-18T04:02:44.825Z,30.40
2022-10-18T04:05:17.047Z,31.20
2022-10-18T04:07:49.549Z,30.10
2022-10-18T04:10:21.789Z,27.70
2022-10-18T04:12:54.023Z,33.50
2022-10-18T04:15:26.104Z,31.60
2022-10-18T04:17:58.520Z,31.50
2022-10-18T04:20:30.766Z,31.30
2022-10-18T04:23:03.048Z,35.00
2022-10-18T04:25:35.287Z,33.50
2022-10-18T04:28:07.702Z,34.00
2022-10-18T04:30:40.018Z,35.30
2022-10-18T04:33:12.230Z,34.60
2022-10-18T04:35:44.445Z,35.90
2022-10-18T04:38:16.516Z,32.90
2022-10-18T04:40:48.788Z,34.80
2022-10-18T04:43:21.013Z,35.60
2022-10-18T04:45:53.248Z,34.70
2022-10-18T04:48:25.492Z,34.30
2022-10-18T04:50:57.626Z,36.50
2022-10-18T04:53:29.765Z,33.70
2022-10-18T04:56:01.936Z,36.60
2022-10-18T04:58:34.148Z,35.20
2022-10-18T05:01:09.198Z,37.10
2022-10-18T05:03:41.556Z,37.60
2022-10-18T05:06:13.691Z,35.40
2022-10-18T05:08:45.993Z,32.50
2022-10-18T05:11:18.135Z,33.00
2022-10-18T05:13:51.002Z,35.50
2022-10-18T05:16:23.431Z,33.30
2022-10-18T05:18:55.559Z,33.30
2022-10-18T05:21:27.726Z,32.20
2022-10-18T05:23:59.959Z,33.40
2022-10-18T05:26:32.095Z,32.30
2022-10-18T05:29:04.707Z,28.00
2022-10-18T05:31:37.009Z,28.60
2022-10-18T05:34:09.137Z,26.30
2022-10-18T05:36:41.653Z,26.90
2022-10-18T05:39:14.031Z,29.30
2022-10-18T05:41:46.271Z,27.00
2022-10-18T05:44:18.722Z,28.80
2022-10-18T05:46:51.215Z,27.30
2022-10-18T05:49:23.754Z,29.70
2022-10-18T05:51:56.187Z,27.40
2022-10-18T05:54:28.357Z,28.00
2022-10-18T05:57:00.526Z,24.40
2022-10-18T05:59:32.749Z,31.10
2022-10-18T06:02:05.402Z,30.40
2022-10-18T06:04:37.579Z,26.10
2022-10-18T06:07:12.683Z,30.10
2022-10-18T06:09:44.814Z,30.40
2022-10-18T06:12:17.014Z,30.20
2022-10-18T06:14:49.589Z,26.60
2022-10-18T06:17:21.898Z,29.90
2022-10-18T06:19:54.021Z,27.30
2022-10-18T06:22:26.149Z,26.60
2022-10-18T06:24:58.266Z,31.50
2022-10-18T06:27:31.865Z,28.10
2022-10-18T06:30:05.133Z,26.70
2022-10-18T06:32:37.362Z,27.60
2022-10-18T06:35:11.057Z,28.70
2022-10-18T06:40:20.670Z,24.90
2022-10-18T06:43:00.298Z,27.40
2022-10-18T06:45:38.076Z,28.10
2022-10-18T06:48:10.640Z,27.40
2022-10-18T06:50:42.936Z,26.20
2022-10-18T06:53:15.013Z,28.30
2022-10-18T06:55:47.823Z,29.20
2022-10-18T06:58:20.144Z,28.40
2022-10-18T07:00:52.508Z,26.40
2022-10-18T07:03:24.704Z,28.10
2022-10-18T07:06:01.448Z,29.70
2022-10-18T07:08:34.991Z,26.00
2022-10-18T07:11:08.368Z,27.60
2022-10-18T07:13:40.626Z,25.90
2022-10-18T07:16:18.242Z,25.50
2022-10-18T07:18:53.184Z,24.30
2022-10-18T07:21:26.779Z,28.30
2022-10-18T07:24:00.284Z,26.20
2022-10-18T07:26:34.303Z,24.30
2022-10-18T07:29:09.681Z,25.10
2022-10-18T07:31:41.869Z,23.00
2022-10-18T07:34:17.692Z,22.80
2022-10-18T07:39:20.315Z,23.90
2022-10-18T07:41:52.412Z,25.90
2022-10-18T07:44:24.795Z,22.90
2022-10-18T07:46:57.243Z,20.60
2022-10-18T07:49:29.330Z,23.60
2022-10-18T07:52:01.528Z,24.90
2022-10-18T07:54:33.676Z,25.20
2022-10-18T07:57:06.821Z,23.30
2022-10-18T07:59:39.450Z,22.10
2022-10-18T08:02:12.229Z,24.50
2022-10-18T08:04:44.387Z,23.70
2022-10-18T08:07:16.470Z,21.00
2022-10-18T08:09:48.704Z,24.80
2022-10-18T08:12:20.847Z,25.00
2022-10-18T08:14:52.912Z,22.40
2022-10-18T08:17:24.971Z,24.20
2022-10-18T08:20:12.065Z,25.70
2022-10-18T08:22:55.471Z,24.80
2022-10-18T08:25:31.929Z,24.10
2022-10-18T08:28:04.084Z,21.70
2022-10-18T08:30:37.275Z,29.20
2022-10-18T08:33:09.429Z,23.20
2022-10-18T08:35:41.580Z,26.10
2022-10-18T08:38:18.015Z,25.60
2022-10-18T08:40:51.468Z,25.40
2022-10-18T08:46:15.255Z,27.10
2022-10-18T08:48:51.210Z,24.10
2022-10-18T08:51:46.527Z,25.10
2022-10-18T08:54:23.689Z,22.90
2022-10-18T08:57:01.904Z,28.20
2022-10-18T08:59:39.583Z,24.00
2022-10-18T09:02:25.079Z,22.20
2022-10-18T09:05:05.561Z,22.60
2022-10-18T09:08:15.617Z,25.60
2022-10-18T09:14:07.864Z,27.00
2022-10-18T09:16:47.011Z,27.50
2022-10-18T09:19:32.839Z,24.80
2022-10-18T09:24:47.227Z,22.40
2022-10-18T09:27:21.468Z,24.90
2022-10-18T09:30:05.140Z,20.00
2022-10-18T09:32:51.801Z,17.70
2022-10-18T09:35:27.337Z,22.90
2022-10-18T09:38:06.828Z,17.80
2022-10-18T09:40:47.174Z,16.90
2022-10-18T09:43:24.228Z,14.90
2022-10-18T09:45:58.033Z,16.60
2022-10-18T09:48:38.354Z,17.10
2022-10-18T09:51:13.747Z,15.70
2022-10-18T09:53:58.109Z,15.50
2022-10-18T09:56:39.308Z,17.90
2022-10-18T09:59:33.673Z,14.00
2022-10-18T10:02:06.670Z,12.80
2022-10-18T10:04:38.768Z,14.00
2022-10-18T10:07:15.995Z,12.20
2022-10-18T10:09:50.190Z,13.90
2022-10-18T10:12:33.648Z,10.10
2022-10-18T10:15:20.554Z,11.70
2022-10-18T10:18:01.949Z,14.70
2022-10-18T10:20:38.305Z,11.60
2022-10-18T10:25:55.934Z,14.80
2022-10-18T10:28:32.488Z,12.70
2022-10-18T10:31:27.956Z,13.50
2022-10-18T10:34:05.945Z,13.70
2022-10-18T10:36:50.090Z,14.20
2022-10-18T10:39:24.371Z,15.30
2022-10-18T10:41:58.368Z,14.40
2022-10-18T10:44:33.568Z,14.00
2022-10-18T10:47:06.006Z,13.50
2022-10-18T10:49:48.496Z,12.40
2022-10-18T10:52:36.555Z,10.60
2022-10-18T10:55:34.767Z,12.10
2022-10-18T10:58:18.530Z,11.80
2022-10-18T11:00:50.705Z,10.30
2022-10-18T11:03:29.457Z,13.00
2022-10-18T11:06:02.324Z,10.00
2022-10-18T11:08:39.720Z,10.90
2022-10-18T11:11:23.083Z,11.00
2022-10-18T11:17:08.157Z,9.90
2022-10-18T11:19:51.345Z,11.00
2022-10-18T11:22:26.872Z,10.30
2022-10-18T11:24:58.960Z,11.10
2022-10-18T11:27:36.220Z,9.60
2022-10-18T11:30:21.184Z,10.00
2022-10-18T11:33:04.331Z,8.60
2022-10-18T11:35:47.010Z,9.40
2022-10-18T11:38:31.072Z,8.40
2022-10-18T11:41:22.648Z,9.00
2022-10-18T11:44:03.556Z,7.60
2022-10-18T11:46:47.530Z,7.80
2022-10-18T11:49:46.295Z,10.40
2022-10-18T11:52:28.797Z,10.50
2022-10-18T11:55:30.317Z,8.40
2022-10-18T11:58:16.048Z,9.90
2022-10-18T12:00:52.447Z,8.80
2022-10-18T12:03:35.320Z,11.40
2022-10-18T12:06:13.593Z,9.60
2022-10-18T12:08:49.350Z,8.70
2022-10-18T12:11:25.856Z,10.10
2022-10-18T12:14:00.872Z,7.80
2022-10-18T12:16:51.062Z,10.20
2022-10-18T12:19:27.569Z,9.30
2022-10-18T12:24:37.228Z,8.70
2022-10-18T12:27:12.968Z,9.80
2022-10-18T12:29:52.285Z,9.60
2022-10-18T12:32:31.231Z,8.80
2022-10-18T12:35:08.437Z,10.20
2022-10-18T12:38:00.699Z,11.00
2022-10-18T12:40:39.182Z,9.60
2022-10-18T12:43:22.828Z,8.20
2022-10-18T12:45:57.469Z,9.40
2022-10-18T12:48:38.771Z,9.30
2022-10-18T12:51:18.515Z,8.10
2022-10-18T12:53:55.855Z,8.70
2022-10-18T12:56:43.460Z,7.80
2022-10-18T12:59:52.314Z,9.10
2022-10-18T13:02:32.889Z,9.10
2022-10-18T13:05:55.638Z,9.20
2022-10-18T13:08:43.371Z,8.30
2022-10-18T13:11:36.040Z,8.60
2022-10-18T13:14:36.317Z,8.90
2022-10-18T13:17:22.729Z,8.90
2022-10-18T13:20:24.603Z,9.70
2022-10-18T13:23:09.356Z,8.60
2022-10-18T13:25:59.151Z,8.70
2022-10-18T13:28:38.838Z,7.70
2022-10-18T13:31:20.788Z,8.80
2022-10-18T13:33:55.466Z,9.10
2022-10-18T13:36:33.624Z,8.50
2022-10-18T13:39:19.812Z,9.40
2022-10-18T13:42:28.700Z,8.90
2022-10-18T13:45:27.539Z,8.30
2022-10-18T13:48:20.375Z,6.90
2022-10-18T13:50:52.961Z,8.10
2022-10-18T13:53:47.034Z,9.90
2022-10-18T13:56:45.763Z,8.40
2022-10-18T13:59:40.541Z,7.80
2022-10-18T14:02:52.353Z,7.20
2022-10-18T14:05:47.048Z,6.70
2022-10-18T14:08:26.185Z,6.50
2022-10-18T14:11:07.560Z,6.00
2022-10-18T14:13:48.431Z,5.80
2022-10-18T14:16:40.137Z,8.30
2022-10-18T14:19:22.647Z,6.00
2022-10-18T14:21:59.567Z,6.70
2022-10-18T14:24:32.811Z,6.90
2022-10-18T14:27:17.983Z,6.70
2022-10-18T14:29:51.578Z,6.60
2022-10-18T14:32:28.757Z,6.40
2022-10-18T14:35:30.634Z,7.70
2022-10-18T14:37:55.772Z,5.70
2022-10-18T14:40:38.195Z,6.00
2022-10-18T14:43:15.183Z,8.30
2022-10-18T14:45:47.640Z,6.30
2022-10-18T14:48:23.820Z,5.40
2022-10-18T14:51:01.061Z,7.50
2022-10-18T14:53:38.741Z,6.40
2022-10-18T14:56:21.055Z,7.60
2022-10-18T14:58:54.425Z,4.80
2022-10-18T15:01:30.763Z,7.70
2022-10-18T15:04:06.338Z,7.40
2022-10-18T15:06:42.899Z,8.70
2022-10-18T15:09:22.011Z,7.70
2022-10-18T15:11:57.882Z,7.90
2022-10-18T15:14:31.920Z,8.10
2022-10-18T15:17:09.730Z,6.80
2022-10-18T15:19:54.314Z,7.40
2022-10-18T15:22:32.425Z,6.40
2022-10-18T15:25:18.215Z,7.70
2022-10-18T15:27:52.671Z,8.00
2022-10-18T15:30:29.024Z,8.50
2022-10-18T15:33:02.884Z,8.50
2022-10-18T15:35:37.088Z,8.60
2022-10-18T15:38:25.849Z,9.30
2022-10-18T15:40:58.727Z,6.60
2022-10-18T15:43:39.849Z,8.20
2022-10-18T15:46:33.330Z,9.00
2022-10-18T15:49:52.581Z,7.20
2022-10-18T15:52:44.485Z,13.20
2022-10-18T15:55:57.042Z,8.50
2022-10-18T15:58:32.100Z,8.40
2022-10-18T16:01:05.234Z,7.90
2022-10-18T16:03:39.827Z,8.50
2022-10-18T16:06:15.995Z,8.20
2022-10-18T16:08:51.929Z,8.80
2022-10-18T16:11:26.385Z,7.60
2022-10-18T16:14:00.439Z,9.40
2022-10-18T16:16:33.002Z,10.00
2022-10-18T16:19:05.734Z,9.40
2022-10-18T16:21:39.945Z,9.40
2022-10-18T16:24:12.095Z,9.40
2022-10-18T16:26:44.343Z,9.10
2022-10-18T16:29:19.477Z,9.10
2022-10-18T16:31:53.688Z,9.70
2022-10-18T16:34:27.789Z,10.10
2022-10-18T16:36:59.981Z,10.40
2022-10-18T16:39:35.129Z,10.90
2022-10-18T16:42:07.209Z,12.80
2022-10-18T16:44:39.244Z,11.90
2022-10-18T16:47:12.913Z,11.50
2022-10-18T16:49:45.489Z,12.00
2022-10-18T16:52:17.493Z,13.10
2022-10-18T16:54:49.470Z,12.70
2022-10-18T16:57:21.541Z,13.60
2022-10-18T16:59:53.601Z,16.80
2022-10-18T17:02:25.851Z,14.30
2022-10-18T17:04:57.906Z,13.80
2022-10-18T17:07:30.109Z,12.00
2022-10-18T17:10:02.168Z,13.40
2022-10-18T17:12:34.597Z,13.00
2022-10-18T17:15:08.697Z,15.00
2022-10-18T17:17:41.235Z,13.40
2022-10-18T17:20:20.478Z,12.50
2022-10-18T17:22:53.175Z,13.30
2022-10-18T17:25:25.315Z,12.50
2022-10-18T17:27:57.412Z,12.20
2022-10-18T17:30:29.445Z,10.90
2022-10-18T17:33:01.948Z,12.40
2022-10-18T17:35:34.676Z,14.70
2022-10-18T17:38:07.838Z,16.00
2022-10-18T17:40:43.003Z,14.20
2022-10-18T17:43:15.140Z,14.00
2022-10-18T17:45:51.595Z,14.40
2022-10-18T17:48:24.620Z,14.70
2022-10-18T17:50:57.250Z,13.60
2022-10-18T17:53:30.895Z,17.30
2022-10-18T17:56:04.576Z,13.10
2022-10-18T17:58:37.373Z,14.80
2022-10-18T18:01:15.068Z,15.10
2022-10-18T18:03:48.802Z,15.90
2022-10-18T18:06:23.558Z,14.30
2022-10-18T18:08:56.313Z,15.80
2022-10-18T18:11:28.861Z,17.60
2022-10-18T18:14:01.284Z,16.80
2022-10-18T18:16:33.395Z,14.10
2022-10-18T18:19:09.700Z,18.30
2022-10-18T18:21:46.309Z,15.60
2022-10-18T18:24:24.587Z,15.50
2022-10-18T18:26:57.586Z,17.80
2022-10-18T18:29:30.520Z,14.60
2022-10-18T18:32:03.536Z,14.10
2022-10-18T18:34:36.739Z,14.30
2022-10-18T18:37:09.364Z,16.90
2022-10-18T18:39:41.630Z,16.60
2022-10-18T18:42:13.753Z,14.50
2022-10-18T18:44:46.173Z,14.70
2022-10-18T18:47:21.888Z,15.00
2022-10-18T18:49:54.293Z,13.90
2022-10-18T18:52:26.787Z,14.80
2022-10-18T18:54:58.861Z,15.50
2022-10-18T18:57:31.221Z,16.80
2022-10-18T19:00:03.575Z,17.80
2022-10-18T19:02:36.068Z,19.80
2022-10-18T19:05:08.812Z,16.40
2022-10-18T19:07:41.725Z,14.80
2022-10-18T19:10:13.960Z,17.60
2022-10-18T19:12:46.151Z,17.40
2022-10-18T19:15:18.493Z,16.80
2022-10-18T19:17:51.195Z,18.00
2022-10-18T19:20:23.485Z,21.20
2022-10-18T19:22:55.633Z,18.40
2022-10-18T19:25:27.771Z,19.00
2022-10-18T19:27:59.924Z,18.00
2022-10-18T19:30:32.084Z,19.50
2022-10-18T19:33:04.851Z,19.10
2022-10-18T19:35:37.451Z,19.00
2022-10-18T19:38:09.562Z,18.90
2022-10-18T19:40:41.862Z,20.50
2022-10-18T19:43:14.026Z,19.70
2022-10-18T19:45:46.110Z,18.10
2022-10-18T19:48:18.388Z,18.10
2022-10-18T19:50:50.926Z,22.10
2022-10-18T19:53:23.020Z,19.80
2022-10-18T19:56:00.486Z,19.90
2022-10-18T19:58:32.941Z,22.50
2022-10-18T20:01:05.082Z,22.70
2022-10-18T20:03:38.031Z,19.00
2022-10-18T20:06:10.508Z,22.30
2022-10-18T20:08:43.535Z,21.30
2022-10-18T20:11:17.741Z,22.10
2022-10-18T20:13:50.715Z,21.80
2022-10-18T20:16:28.211Z,21.30
2022-10-18T20:19:02.787Z,21.40
2022-10-18T20:21:36.677Z,21.50
2022-10-18T20:24:10.077Z,20.30
2022-10-18T20:26:43.942Z,18.90
2022-10-18T20:29:16.141Z,19.10
2022-10-18T20:31:48.665Z,20.90
2022-10-18T20:34:25.754Z,21.90
2022-10-18T20:36:58.470Z,19.10
2022-10-18T20:39:30.588Z,17.90
2022-10-18T20:42:02.967Z,18.10
2022-10-18T20:44:34.986Z,20.40
2022-10-18T20:47:06.968Z,20.20
2022-10-18T20:49:39.459Z,19.90
2022-10-18T20:52:12.270Z,20.30
2022-10-18T20:54:44.254Z,17.90
2022-10-18T20:57:16.290Z,22.30
2022-10-18T20:59:49.510Z,21.40
2022-10-18T21:02:21.555Z,20.40
2022-10-18T21:04:53.586Z,24.20
2022-10-18T21:07:25.684Z,30.90
2022-10-18T21:09:57.947Z,36.90
2022-10-18T21:12:30.272Z,37.90
2022-10-18T21:15:02.753Z,34.20
2022-10-18T21:17:34.840Z,33.30
2022-10-18T21:20:08.783Z,29.30
2022-10-18T21:22:40.732Z,28.80
2022-10-18T21:25:13.173Z,26.60
2022-10-18T21:27:45.204Z,37.20
2022-10-18T21:30:17.364Z,36.20
2022-10-18T21:32:52.567Z,29.80
2022-10-18T21:35:24.636Z,32.70
2022-10-18T21:37:56.743Z,33.30
2022-10-18T21:40:28.802Z,31.70
2022-10-18T21:43:00.859Z,29.90
2022-10-18T21:45:33.169Z,32.30
2022-10-18T21:48:05.674Z,32.00
2022-10-18T21:50:40.841Z,39.10
2022-10-18T21:53:13.815Z,34.50
2022-10-18T21:55:45.898Z,41.10
2022-10-18T21:58:17.962Z,33.20
2022-10-18T22:00:50.154Z,36.20
2022-10-18T22:03:23.492Z,33.40
2022-10-18T22:06:03.183Z,31.30
2022-10-18T22:08:35.663Z,31.20
2022-10-18T22:11:07.850Z,32.50
2022-10-18T22:13:40.468Z,30.10
2022-10-18T22:16:15.486Z,32.10
2022-10-18T22:18:50.080Z,33.80
2022-10-18T22:21:23.414Z,29.80
2022-10-18T22:23:58.098Z,31.70
2022-10-18T22:26:31.694Z,33.20
2022-10-18T22:29:05.706Z,33.40
2022-10-18T22:31:40.418Z,28.40
2022-10-18T22:34:16.705Z,33.50
2022-10-18T22:36:48.870Z,34.60
2022-10-18T22:39:21.431Z,34.70
2022-10-18T22:41:56.444Z,31.40
2022-10-18T22:44:28.525Z,30.20
2022-10-18T22:47:00.675Z,29.10
2022-10-18T22:49:32.678Z,27.60
2022-10-18T22:52:05.086Z,30.00
2022-10-18T22:54:37.133Z,28.70
2022-10-18T22:57:09.160Z,25.60
2022-10-18T22:59:41.528Z,29.10
2022-10-18T23:02:13.544Z,26.50
2022-10-18T23:04:45.860Z,29.10
2022-10-18T23:07:17.945Z,23.40
2022-10-18T23:09:50.068Z,28.60
2022-10-18T23:12:22.123Z,30.50
2022-10-18T23:14:54.168Z,28.00
2022-10-18T23:17:26.323Z,28.50
2022-10-18T23:19:58.852Z,28.50
2022-10-18T23:22:31.199Z,28.30
2022-10-18T23:25:03.543Z,26.80
2022-10-18T23:27:35.623Z,24.20
2022-10-18T23:30:09.718Z,24.00
2022-10-18T23:32:42.390Z,28.00
2022-10-18T23:35:14.876Z,26.70
2022-10-18T23:37:47.859Z,27.30
2022-10-18T23:40:20.535Z,27.00
2022-10-18T23:42:52.564Z,23.50
2022-10-18T23:45:24.633Z,27.00
2022-10-18T23:47:56.777Z,23.90
2022-10-18T23:50:28.874Z,25.00
2022-10-18T23:53:01.059Z,23.90
2022-10-18T23:55:33.175Z,28.30
2022-10-18T23:58:05.714Z,21.30
